KEKN/EKN METAR and TAF weather

Enter ICAO airport designator
Station Type Date Time Source
KEKN METAR 2021/09/24 05:51 UTC NOAA

KEKN 240551Z AUTO 18005KT 10SM OVC045 11/07 A3006 RMK AO2 SLP183 T01110072 10117 20094 58001


Station Type Date Time Source
KEKN Decoded METAR 2021/09/24 05:51 UTC NOAA

JENNINGS RANDOLPH FIELD, WV, United States (KEKN) 38-53N 079-51W 603M
Sep 24, 2021 - 01:51 AM EDT / 2021.09.24 0551 UTC
Wind: from the S (180 degrees) at 6 MPH (5 KT):0
Visibility: 10 mile(s):0
Sky conditions: overcast
Temperature: 52.0 F (11.1 C)
Dew Point: 45.0 F (7.2 C)
Relative Humidity: 76%
Pressure (altimeter): 30.06 in. Hg (1017 hPa)
Pressure tendency: 0.00 inches (0.1 hPa) lower than three hours ago
ob: KEKN 240551Z AUTO 18005KT 10SM OVC045 11/07 A3006 RMK AO2 SLP183 T01110072 10117 20094 58001
cycle: 6

Station Type Date Time Source
KEKN TAF 2021/09/24 06:34 UTC NOAA

TAF KEKN 240532Z 2406/2506 00000KT P6SM BKN050
FM240700 00000KT 4SM BR SCT005
TEMPO 2407/2409 6SM BKN050
FM240900 00000KT 2SM BR FEW005
FM241200 00000KT 3/4SM BR BKN001
FM241300 00000KT 6SM BR FEW025
FM241400 27004KT P6SM FEW180

Example: see airport list